KGGG/GGG METAR and TAF weather

Enter ICAO airport designator
Station Type Date Time Source
KGGG METAR 2021/09/28 15:53 UTC NOAA

KGGG 281553Z 15006KT 10SM CLR 28/22 A2997 RMK AO2 RAB17E26 SLP142 P0002 T02780217 $


Station Type Date Time Source
KGGG Decoded METAR 2021/09/28 15:53 UTC NOAA

LONGVIEW GREGG COUNTY AIRPORT , TX, United States (KGGG) 32-23N 094-43W 107M
Sep 28, 2021 - 11:53 AM EDT / 2021.09.28 1553 UTC
Wind: from the SSE (150 degrees) at 7 MPH (6 KT):0
Visibility: 10 mile(s):0
Sky conditions: clear
Precipitation last hour: 0.02 inches
Temperature: 82.0 F (27.8 C)
Dew Point: 71.1 F (21.7 C)
Relative Humidity: 69%
Pressure (altimeter): 29.97 in. Hg (1014 hPa)
ob: KGGG 281553Z 15006KT 10SM CLR 28/22 A2997 RMK AO2 RAB17E26 SLP142 P0002 T02780217
cycle: 16

Station Type Date Time Source
KGGG TAF 2021/09/28 13:21 UTC NOAA

TAF
AMD KGGG 281319Z 2813/2912 17003KT 3SM BR OVC004
TEMPO 2813/2815 1/4SM FG VV002
FM281500 19006KT P6SM BKN007
TEMPO 2815/2818 SCT015 SCT030 BKN250
FM281800 18010KT P6SM SCT035 BKN250
FM290100 16006KT P6SM BKN250
FM290800 16005KT P6SM BKN008

Example: see airport list